Time;durP1;ratioP1;P1;durP2;ratioP2;P2;SDS_P1;SDS_P2;PMS_P1;PMS_P2;Temp;Humidity;BMP_temperature;BMP_pressure;BME280_temperature;BME280_humidity;BME280_pressure;Samples;Min_cycle;Max_cycle;Signal;HPM_P1;HPM_P2
2023/03/02 00:02:20;;;;;;;9.98;5.80;;;8.30;69.40;;;;;;5033683;28;20079;-60
2023/03/02 00:04:52;;;;;;;11.23;7.00;;;8.30;69.20;;;;;;5033413;28;20048;-60
2023/03/02 00:07:31;;;;;;;8.48;6.13;;;8.30;69.60;;;;;;5033546;28;20486;-60
2023/03/02 00:09:57;;;;;;;8.50;6.30;;;8.30;69.60;;;;;;5033499;28;20029;-61
2023/03/02 00:12:25;;;;;;;8.32;5.40;;;8.20;69.80;;;;;;5033646;28;20017;-60
2023/03/02 00:14:51;;;;;;;8.95;5.25;;;8.20;69.50;;;;;;5033018;28;20041;-60
2023/03/02 00:17:17;;;;;;;9.77;6.35;;;8.20;69.80;;;;;;5033492;28;20021;-61
2023/03/02 00:19:43;;;;;;;9.57;5.75;;;8.20;69.90;;;;;;5033270;28;20375;-60
2023/03/02 00:22:09;;;;;;;9.82;6.25;;;8.20;70.00;;;;;;5033570;28;20029;-60
2023/03/02 00:24:34;;;;;;;7.70;5.82;;;8.20;70.00;;;;;;5033136;28;20479;-59
2023/03/02 00:27:00;;;;;;;9.05;6.20;;;8.10;70.40;;;;;;5033508;28;20507;-60
2023/03/02 00:29:26;;;;;;;7.88;5.72;;;8.10;70.30;;;;;;5032992;28;20037;-60
2023/03/02 00:31:51;;;;;;;6.72;5.70;;;8.10;70.20;;;;;;5033064;28;20029;-61
2023/03/02 00:34:17;;;;;;;9.13;5.72;;;8.10;70.40;;;;;;5033037;28;20101;-59
2023/03/02 00:36:43;;;;;;;9.80;5.80;;;8.10;70.40;;;;;;5033188;28;20071;-59
2023/03/02 00:39:08;;;;;;;8.25;6.03;;;8.10;70.50;;;;;;5032989;28;20032;-61
2023/03/02 00:41:34;;;;;;;8.20;5.90;;;8.10;70.70;;;;;;5033454;28;20026;-61
2023/03/02 00:43:59;;;;;;;10.45;6.00;;;8.10;70.50;;;;;;5032757;28;20061;-60
2023/03/02 00:46:27;;;;;;;9.15;5.93;;;8.10;70.70;;;;;;5033178;28;20025;-60
2023/03/02 00:48:52;;;;;;;9.32;6.22;;;8.10;70.80;;;;;;5033059;28;20112;-59
2023/03/02 00:51:19;;;;;;;9.02;5.82;;;8.10;70.70;;;;;;5033092;28;20492;-59
2023/03/02 00:53:45;;;;;;;8.43;6.32;;;8.10;70.70;;;;;;5033054;28;20033;-59
2023/03/02 00:56:11;;;;;;;8.10;6.40;;;8.00;71.00;;;;;;5032689;28;20021;-60
2023/03/02 00:58:36;;;;;;;7.72;5.68;;;8.00;71.10;;;;;;5032991;28;20029;-60
2023/03/02 01:01:09;;;;;;;9.63;5.82;;;8.00;71.00;;;;;;5032847;28;20095;-60
2023/03/02 01:03:35;;;;;;;8.88;6.03;;;8.00;71.00;;;;;;5032596;28;20037;-60
2023/03/02 01:06:01;;;;;;;7.07;5.47;;;7.90;71.10;;;;;;5032725;28;20035;-60
2023/03/02 01:08:27;;;;;;;9.20;5.70;;;7.90;71.10;;;;;;5032889;28;20025;-60
2023/03/02 01:10:52;;;;;;;10.60;6.20;;;8.00;71.20;;;;;;5032259;28;20028;-60
2023/03/02 01:13:19;;;;;;;7.03;6.15;;;7.90;71.10;;;;;;5032900;28;20493;-59
2023/03/02 01:15:44;;;;;;;6.68;5.78;;;8.00;71.00;;;;;;5032572;28;20045;-61
2023/03/02 01:18:10;;;;;;;9.60;6.15;;;8.00;70.80;;;;;;5032729;28;20489;-60
2023/03/02 01:20:36;;;;;;;10.82;6.28;;;7.90;71.10;;;;;;5032809;28;20022;-60
2023/03/02 01:23:02;;;;;;;7.88;6.20;;;7.80;71.20;;;;;;5032551;28;20125;-60
2023/03/02 01:25:27;;;;;;;10.45;5.55;;;7.90;71.30;;;;;;5031099;28;20414;-60
2023/03/02 01:27:53;;;;;;;9.10;6.18;;;7.80;71.20;;;;;;5032674;28;20029;-60
2023/03/02 01:30:19;;;;;;;8.18;5.47;;;7.80;70.90;;;;;;5032691;28;20032;-61
2023/03/02 01:32:45;;;;;;;9.20;6.65;;;7.80;71.10;;;;;;5032292;28;20116;-59
2023/03/02 01:35:10;;;;;;;10.10;5.53;;;7.80;71.20;;;;;;5032610;28;20053;-59
2023/03/02 01:37:36;;;;;;;10.23;6.57;;;7.80;71.20;;;;;;5032584;28;20029;-60
2023/03/02 01:40:05;;;;;;;8.70;5.40;;;7.80;71.30;;;;;;5032356;28;20026;-60
2023/03/02 01:42:38;;;;;;;7.18;5.75;;;7.70;71.50;;;;;;5025221;28;20037;-61
2023/03/02 01:45:05;;;;;;;7.45;5.65;;;7.80;71.40;;;;;;5014987;28;20056;-59
2023/03/02 01:47:37;;;;;;;7.32;5.70;;;7.70;71.40;;;;;;5011233;28;20070;-60
2023/03/02 01:50:13;;;;;;;6.78;5.53;;;7.70;71.50;;;;;;5012075;28;20065;-61
2023/03/02 01:52:39;;;;;;;8.30;5.88;;;7.70;71.70;;;;;;5015079;28;20057;-60
2023/03/02 01:55:09;;;;;;;9.68;6.32;;;7.70;71.60;;;;;;5016133;28;20057;-59
2023/03/02 01:57:42;;;;;;;9.98;6.88;;;7.70;71.50;;;;;;5016532;28;20030;-59
2023/03/02 02:00:11;;;;;;;10.52;6.28;;;7.70;71.50;;;;;;5016459;28;20052;-60
2023/03/02 02:02:40;;;;;;;8.13;5.95;;;7.70;71.70;;;;;;5015866;28;20033;-61
2023/03/02 02:05:09;;;;;;;8.57;6.82;;;7.60;71.70;;;;;;5016247;28;20495;-59
2023/03/02 02:07:35;;;;;;;9.90;5.82;;;7.60;71.80;;;;;;5016365;28;20538;-60
2023/03/02 02:10:02;;;;;;;8.55;6.00;;;7.60;71.80;;;;;;5015997;28;20361;-63
2023/03/02 02:12:27;;;;;;;9.00;5.75;;;7.60;71.70;;;;;;5016165;28;20450;-59
2023/03/02 02:14:54;;;;;;;6.82;5.45;;;7.60;71.80;;;;;;5016185;28;20432;-64
2023/03/02 02:17:20;;;;;;;9.05;5.78;;;7.60;71.80;;;;;;5015819;28;20022;-60
2023/03/02 02:20:05;;;;;;;9.20;5.78;;;7.60;71.70;;;;;;5016150;28;20030;-59
2023/03/02 02:22:48;;;;;;;7.97;5.47;;;7.60;71.90;;;;;;5015944;28;20030;-59
2023/03/02 02:25:23;;;;;;;8.48;6.38;;;7.50;72.10;;;;;;5015854;28;20038;-61
2023/03/02 02:27:49;;;;;;;7.78;6.13;;;7.60;71.90;;;;;;5015758;28;20468;-60
2023/03/02 02:30:17;;;;;;;6.57;5.47;;;7.50;72.10;;;;;;5015989;28;20018;-59
2023/03/02 02:32:45;;;;;;;7.50;5.45;;;7.50;72.30;;;;;;5015789;28;20022;-60
2023/03/02 02:35:23;;;;;;;8.98;6.13;;;7.50;71.90;;;;;;5015679;28;20030;-60
2023/03/02 02:37:57;;;;;;;8.48;5.88;;;7.50;72.40;;;;;;5015188;28;20018;-58
2023/03/02 02:40:52;;;;;;;8.98;6.70;;;7.50;72.30;;;;;;5015963;28;20025;-60
2023/03/02 02:43:21;;;;;;;9.52;5.88;;;7.40;72.50;;;;;;5017473;28;20044;-61
2023/03/02 02:45:50;;;;;;;11.48;5.85;;;7.40;72.80;;;;;;5023805;28;20026;-60
2023/03/02 02:48:18;;;;;;;8.00;5.65;;;7.40;72.80;;;;;;5013430;28;20022;-61
2023/03/02 02:50:45;;;;;;;10.30;6.13;;;7.40;72.70;;;;;;5015250;28;20101;-59
2023/03/02 02:53:16;;;;;;;7.95;5.68;;;7.30;72.80;;;;;;5015331;28;20376;-60
2023/03/02 02:55:44;;;;;;;9.25;6.47;;;7.40;73.00;;;;;;5015179;28;20114;-60
2023/03/02 02:58:32;;;;;;;8.65;6.78;;;7.40;72.90;;;;;;5013890;28;20030;-61
2023/03/02 03:00:58;;;;;;;10.18;6.22;;;7.40;72.80;;;;;;5015314;28;20080;-61
2023/03/02 03:03:31;;;;;;;8.02;5.75;;;7.30;72.90;;;;;;5014791;28;20525;-59
2023/03/02 03:05:58;;;;;;;;;;;7.30;73.00;;;;;;5015711;28;20073;-59
2023/03/02 03:08:44;;;;;;;11.90;6.85;;;7.30;73.20;;;;;;5014982;28;19948;-60
2023/03/02 03:11:12;;;;;;;8.32;6.20;;;7.30;73.40;;;;;;5004801;28;20034;-59
2023/03/02 03:13:39;;;;;;;6.88;5.75;;;7.30;73.50;;;;;;5015118;28;20029;-60
2023/03/02 03:16:08;;;;;;;7.80;5.80;;;7.20;73.60;;;;;;5014922;28;20034;-59
2023/03/02 03:18:34;;;;;;;8.50;6.07;;;7.20;73.60;;;;;;5013460;28;20026;-60
2023/03/02 03:20:59;;;;;;;7.57;6.07;;;7.20;73.80;;;;;;5015208;28;20033;-60
2023/03/02 03:23:25;;;;;;;7.55;5.97;;;7.20;74.00;;;;;;5014435;28;20038;-60
2023/03/02 03:25:51;;;;;;;9.15;6.65;;;7.20;73.70;;;;;;5014741;28;20219;-59
2023/03/02 03:28:17;;;;;;;11.73;6.32;;;7.20;74.00;;;;;;5014682;28;20105;-60
2023/03/02 03:30:43;;;;;;;8.73;6.18;;;7.10;74.10;;;;;;5014532;28;20459;-59
2023/03/02 03:33:09;;;;;;;8.32;6.50;;;7.10;74.00;;;;;;5035246;23;20042;-62
2023/03/02 03:35:36;;;;;;;8.55;6.00;;;7.20;74.00;;;;;;5034467;28;20449;-61
2023/03/02 03:38:03;;;;;;;10.57;6.68;;;7.10;74.20;;;;;;5034152;28;20018;-62
2023/03/02 03:40:33;;;;;;;10.35;6.30;;;7.10;74.00;;;;;;5034218;28;20443;-63
2023/03/02 03:43:01;;;;;;;10.30;5.93;;;7.10;74.40;;;;;;5034259;28;20391;-61
2023/03/02 03:45:27;;;;;;;9.93;6.18;;;7.10;74.50;;;;;;5033906;28;20018;-60
2023/03/02 03:47:52;;;;;;;9.73;6.57;;;7.00;74.60;;;;;;5033693;28;20036;-61
2023/03/02 03:50:18;;;;;;;8.50;6.63;;;7.00;74.70;;;;;;5033710;28;20053;-60
2023/03/02 03:52:44;;;;;;;9.45;6.55;;;7.00;74.80;;;;;;5033975;28;20037;-62
2023/03/02 03:55:11;;;;;;;8.88;5.95;;;7.00;74.60;;;;;;5033600;28;20060;-60
2023/03/02 03:57:37;;;;;;;9.45;6.43;;;7.00;74.70;;;;;;5033887;28;20029;-60
2023/03/02 04:00:09;;;;;;;7.68;6.28;;;7.00;75.00;;;;;;5033796;28;20052;-60
2023/03/02 04:02:35;;;;;;;6.82;6.03;;;7.00;74.60;;;;;;5033687;28;20134;-62
2023/03/02 04:05:05;;;;;;;10.48;6.78;;;7.00;74.70;;;;;;5015804;28;20121;-61
2023/03/02 04:07:35;;;;;;;10.43;6.43;;;7.00;74.70;;;;;;5033538;28;20033;-63
2023/03/02 04:10:03;;;;;;;10.70;6.70;;;7.00;74.70;;;;;;5033676;28;20025;-60
2023/03/02 04:12:30;;;;;;;11.63;6.53;;;7.00;74.70;;;;;;5033803;28;20079;-62
2023/03/02 04:14:56;;;;;;;8.40;6.60;;;7.00;74.80;;;;;;5015355;28;20040;-62
2023/03/02 04:17:21;;;;;;;11.05;6.32;;;6.90;74.90;;;;;;5033425;28;20029;-61
2023/03/02 04:19:47;;;;;;;10.82;6.63;;;6.90;74.90;;;;;;5015540;28;20022;-62
2023/03/02 04:22:14;;;;;;;9.38;7.07;;;6.90;74.80;;;;;;5033381;28;20025;-59
2023/03/02 04:24:39;;;;;;;9.98;6.82;;;6.90;75.10;;;;;;5033410;28;20029;-63
2023/03/02 04:27:05;;;;;;;8.80;6.68;;;6.90;75.00;;;;;;5033321;28;20036;-63
2023/03/02 04:29:31;;;;;;;11.02;7.50;;;6.90;74.90;;;;;;5033129;28;20025;-62
2023/03/02 04:31:56;;;;;;;10.02;7.28;;;6.90;74.90;;;;;;5033238;28;20441;-61
2023/03/02 04:34:24;;;;;;;10.00;7.00;;;6.90;75.10;;;;;;5032677;28;20045;-61
2023/03/02 04:36:50;;;;;;;13.90;6.97;;;6.80;75.60;;;;;;5033277;28;20095;-60
2023/03/02 04:39:17;;;;;;;10.45;7.32;;;6.80;75.60;;;;;;5033232;28;20032;-63
2023/03/02 04:41:43;;;;;;;9.80;7.75;;;6.80;75.70;;;;;;5015348;28;20025;-62
2023/03/02 04:44:09;;;;;;;11.77;7.97;;;6.80;75.70;;;;;;5032946;28;20029;-61
2023/03/02 04:46:35;;;;;;;12.40;9.13;;;6.80;76.10;;;;;;5033020;28;20576;-64
2023/03/02 04:49:01;;;;;;;11.63;8.50;;;6.80;76.50;;;;;;5032902;28;20029;-61
2023/03/02 04:51:35;;;;;;;12.70;9.07;;;6.70;76.70;;;;;;5032881;28;20055;-61
2023/03/02 04:54:05;;;;;;;13.63;10.13;;;6.80;76.70;;;;;;5032976;28;20033;-63
2023/03/02 04:56:32;;;;;;;12.90;10.07;;;6.70;76.90;;;;;;5032906;28;20044;-63
2023/03/02 04:58:58;;;;;;;14.48;11.45;;;6.70;77.40;;;;;;5032869;28;20053;-63
2023/03/02 05:01:24;;;;;;;16.15;11.55;;;6.70;77.70;;;;;;5032664;28;20036;-63
2023/03/02 05:03:50;;;;;;;17.90;12.50;;;6.70;78.00;;;;;;5032718;28;20045;-62
2023/03/02 05:06:15;;;;;;;20.40;14.10;;;6.70;78.30;;;;;;5032803;28;20368;-63
2023/03/02 05:08:41;;;;;;;20.77;15.18;;;6.70;78.70;;;;;;5032763;28;20033;-63
2023/03/02 05:11:09;;;;;;;23.50;15.38;;;6.60;78.90;;;;;;5032667;28;20075;-62
2023/03/02 05:13:35;;;;;;;21.52;15.75;;;6.70;79.30;;;;;;5032752;28;20044;-62
2023/03/02 05:16:01;;;;;;;25.58;15.65;;;6.70;79.60;;;;;;5032681;28;20036;-61
2023/03/02 05:18:27;;;;;;;20.75;16.27;;;6.60;79.90;;;;;;5032365;28;20441;-61
2023/03/02 05:20:53;;;;;;;21.52;16.65;;;6.60;80.20;;;;;;5032910;28;20437;-61
2023/03/02 05:23:23;;;;;;;21.10;15.80;;;6.60;80.30;;;;;;5032386;28;20037;-62
2023/03/02 05:25:51;;;;;;;22.92;16.75;;;6.60;80.70;;;;;;5032397;28;20497;-63
2023/03/02 05:28:18;;;;;;;23.17;17.80;;;6.60;81.00;;;;;;5036462;28;20032;-62
2023/03/02 05:30:44;;;;;;;24.55;17.77;;;6.60;81.00;;;;;;5036724;28;20083;-60
2023/03/02 05:33:09;;;;;;;26.13;17.25;;;6.60;81.20;;;;;;5035905;28;20037;-64
2023/03/02 05:35:35;;;;;;;23.58;18.67;;;6.50;81.20;;;;;;5036536;28;20034;-61
2023/03/02 05:38:01;;;;;;;25.73;19.65;;;6.40;81.50;;;;;;5036566;28;20025;-62
2023/03/02 05:40:27;;;;;;;29.20;21.25;;;6.10;82.30;;;;;;5036557;28;20445;-63
2023/03/02 05:42:52;;;;;;;28.50;20.65;;;5.70;84.30;;;;;;5036618;28;20066;-61
2023/03/02 05:45:25;;;;;;;28.95;20.73;;;5.40;84.90;;;;;;5036271;28;20394;-60
2023/03/02 05:47:51;;;;;;;27.33;20.50;;;5.30;85.70;;;;;;5036006;28;20025;-59
2023/03/02 05:50:17;;;;;;;28.63;20.30;;;5.20;86.40;;;;;;5036468;28;20371;-62
2023/03/02 05:52:44;;;;;;;33.33;21.70;;;5.20;86.80;;;;;;5036307;28;20061;-62
2023/03/02 05:55:11;;;;;;;31.20;22.17;;;5.00;87.50;;;;;;5036327;28;20022;-61
2023/03/02 05:57:37;;;;;;;29.08;21.15;;;5.00;87.50;;;;;;5036052;28;20104;-63
2023/03/02 06:00:04;;;;;;;30.33;22.10;;;4.90;88.60;;;;;;5036208;28;20113;-63
2023/03/02 06:02:31;;;;;;;31.80;22.58;;;4.80;89.00;;;;;;5031151;28;20030;-61
2023/03/02 06:04:56;;;;;;;32.45;23.88;;;4.80;89.30;;;;;;5035589;28;20026;-64
2023/03/02 06:07:22;;;;;;;36.85;24.75;;;4.50;90.20;;;;;;5035514;28;20467;-62
2023/03/02 06:09:48;;;;;;;36.13;23.58;;;4.50;90.30;;;;;;5034080;28;20049;-64
2023/03/02 06:12:14;;;;;;;33.28;23.52;;;4.60;90.10;;;;;;5034494;28;20025;-64
2023/03/02 06:14:39;;;;;;;34.22;24.27;;;4.60;90.30;;;;;;5035902;28;20466;-63
2023/03/02 06:17:05;;;;;;;32.35;23.75;;;4.40;90.70;;;;;;5035199;28;20037;-61
2023/03/02 06:19:30;;;;;;;34.70;23.85;;;4.30;91.00;;;;;;5029617;28;20030;-61
2023/03/02 06:21:56;;;;;;;36.15;24.50;;;4.50;90.80;;;;;;5025919;28;20033;-64
2023/03/02 06:24:21;;;;;;;35.75;24.88;;;4.50;90.70;;;;;;5034428;28;20080;-63
2023/03/02 06:26:47;;;;;;;31.35;22.20;;;4.40;91.00;;;;;;5032746;28;20026;-62
2023/03/02 06:29:12;;;;;;;36.20;24.40;;;4.30;91.10;;;;;;5033167;28;20033;-60
2023/03/02 06:31:38;;;;;;;34.25;23.98;;;4.20;91.50;;;;;;5031109;28;20497;-61
2023/03/02 06:34:04;;;;;;;36.78;25.05;;;4.20;91.60;;;;;;5026995;28;20398;-61
2023/03/02 06:36:29;;;;;;;42.35;25.23;;;4.30;91.40;;;;;;5029034;28;20130;-60
2023/03/02 06:38:55;;;;;;;33.78;25.00;;;4.30;91.40;;;;;;5030244;28;20029;-62
2023/03/02 06:41:21;;;;;;;31.90;21.48;;;4.10;92.20;;;;;;5002249;28;20025;-64
2023/03/02 06:43:46;;;;;;;33.63;22.25;;;4.30;92.20;;;;;;5029355;28;20040;-62
2023/03/02 06:46:12;;;;;;;31.10;23.27;;;4.80;91.20;;;;;;5030781;28;20025;-63
2023/03/02 06:48:38;;;;;;;30.60;21.85;;;5.20;90.40;;;;;;5031044;28;20030;-64
2023/03/02 06:51:04;;;;;;;27.65;20.02;;;5.40;90.00;;;;;;5028781;28;20029;-60
2023/03/02 06:53:29;;;;;;;34.55;21.38;;;5.60;89.40;;;;;;5030009;28;20386;-62
2023/03/02 06:55:55;;;;;;;34.45;22.95;;;5.70;88.70;;;;;;5030443;28;20030;-63
2023/03/02 06:58:21;;;;;;;32.78;22.15;;;5.80;88.60;;;;;;5030389;28;20477;-61
2023/03/02 07:00:46;;;;;;;32.42;22.17;;;5.90;87.90;;;;;;5032522;28;20032;-63
2023/03/02 07:03:12;;;;;;;30.52;21.75;;;5.90;87.70;;;;;;5025623;28;20030;-62
2023/03/02 07:05:37;;;;;;;31.50;23.00;;;5.90;87.80;;;;;;5017228;28;20052;-62
2023/03/02 07:08:03;;;;;;;30.48;22.55;;;6.00;87.50;;;;;;5032943;28;20107;-63
2023/03/02 07:10:29;;;;;;;34.42;22.65;;;6.00;88.00;;;;;;5034129;28;20053;-62
2023/03/02 07:12:54;;;;;;;29.38;20.25;;;6.00;87.90;;;;;;5016231;28;20022;-62
2023/03/02 07:15:20;;;;;;;34.75;23.55;;;6.00;88.90;;;;;;5034458;28;20079;-64
2023/03/02 07:17:46;;;;;;;32.45;23.70;;;6.10;88.00;;;;;;5033816;28;20029;-62
2023/03/02 07:20:15;;;;;;;31.48;21.83;;;6.10;87.60;;;;;;5034528;28;20025;-63
2023/03/02 07:22:41;;;;;;;32.25;22.10;;;6.10;87.50;;;;;;5033886;28;20064;-61
2023/03/02 07:25:08;;;;;;;30.02;21.67;;;6.20;87.60;;;;;;5016409;28;20121;-61
2023/03/02 07:27:34;;;;;;;33.72;23.10;;;6.10;88.00;;;;;;5034392;28;20025;-61
2023/03/02 07:30:00;;;;;;;32.22;24.13;;;6.20;88.20;;;;;;5034073;28;20119;-62
2023/03/02 07:32:26;;;;;;;33.22;23.13;;;6.20;87.90;;;;;;5034226;28;20043;-62
2023/03/02 07:34:51;;;;;;;32.65;23.45;;;6.20;87.80;;;;;;5034230;28;20041;-63
2023/03/02 07:37:17;;;;;;;34.53;23.58;;;6.20;88.00;;;;;;5034302;28;20014;-61
2023/03/02 07:39:43;;;;;;;33.80;24.70;;;6.30;87.60;;;;;;5034170;28;20078;-63
2023/03/02 07:42:11;;;;;;;32.95;24.25;;;6.30;87.60;;;;;;5016212;28;20014;-63
2023/03/02 07:44:36;;;;;;;37.25;24.65;;;6.40;87.20;;;;;;5029384;28;20041;-62
2023/03/02 07:47:02;;;;;;;33.97;24.17;;;6.40;87.60;;;;;;5028891;28;20022;-60
2023/03/02 07:49:28;;;;;;;36.17;25.00;;;6.50;87.00;;;;;;5030751;28;20032;-62
2023/03/02 07:51:53;;;;;;;36.63;25.35;;;6.50;86.90;;;;;;5033561;28;20123;-62
2023/03/02 07:54:19;;;;;;;34.85;25.35;;;6.60;86.50;;;;;;5032753;28;20033;-61
2023/03/02 07:56:45;;;;;;;36.22;24.95;;;6.50;86.60;;;;;;5029463;28;20104;-61
2023/03/02 07:59:11;;;;;;;36.40;26.13;;;6.60;86.30;;;;;;5029830;28;20043;-61
2023/03/02 08:01:37;;;;;;;39.95;25.38;;;6.60;86.80;;;;;;5031837;28;20100;-61
2023/03/02 08:04:03;;;;;;;33.78;25.05;;;6.60;86.70;;;;;;5033671;28;20133;-61
2023/03/02 08:06:29;;;;;;;38.58;25.77;;;6.70;86.60;;;;;;5026596;28;20025;-64
2023/03/02 08:08:55;;;;;;;36.72;26.33;;;6.70;86.40;;;;;;5024676;28;20474;-61
2023/03/02 08:11:20;;;;;;;38.88;26.15;;;6.70;86.70;;;;;;5032860;28;20017;-63
2023/03/02 08:13:46;;;;;;;35.72;24.85;;;6.70;86.60;;;;;;5027960;28;20057;-63
2023/03/02 08:16:13;;;;;;;40.67;27.20;;;6.70;86.90;;;;;;5028964;28;20025;-62
2023/03/02 08:18:39;;;;;;;39.08;27.15;;;6.80;86.90;;;;;;5019463;28;20469;-62
2023/03/02 08:21:13;;;;;;;35.85;26.05;;;6.80;86.20;;;;;;5018152;28;20022;-63
2023/03/02 08:23:39;;;;;;;36.75;25.40;;;6.90;86.50;;;;;;5025341;28;20041;-62
2023/03/02 08:26:05;;;;;;;39.70;25.45;;;6.90;86.60;;;;;;5017681;28;20025;-62
2023/03/02 08:28:30;;;;;;;34.63;26.30;;;6.90;86.50;;;;;;5026683;28;20057;-61
2023/03/02 08:30:57;;;;;;;41.13;26.83;;;6.90;86.80;;;;;;5027730;28;20223;-61
2023/03/02 08:33:23;;;;;;;40.08;26.40;;;6.90;86.80;;;;;;5027019;28;20120;-60
2023/03/02 08:36:16;;;;;;;36.42;26.05;;;7.00;86.70;;;;;;5012429;28;20101;-61
2023/03/02 08:38:42;;;;;;;40.10;27.77;;;7.00;86.70;;;;;;5009133;28;20073;-61
2023/03/02 08:41:12;;;;;;;37.33;26.45;;;7.10;86.50;;;;;;5018144;28;20022;-61
2023/03/02 08:43:37;;;;;;;38.97;27.45;;;7.00;87.10;;;;;;5013002;28;20483;-61
2023/03/02 08:46:03;;;;;;;38.85;26.95;;;7.10;86.70;;;;;;5021288;28;20060;-62
2023/03/02 08:48:29;;;;;;;39.08;28.15;;;7.00;87.10;;;;;;5014711;28;20030;-61
2023/03/02 08:51:01;;;;;;;33.97;24.63;;;7.10;87.00;;;;;;5022218;28;20524;-61
2023/03/02 08:53:30;;;;;;;37.03;26.95;;;7.00;86.80;;;;;;5008543;28;20040;-62
2023/03/02 08:55:55;;;;;;;36.65;25.17;;;7.20;86.40;;;;;;5024648;28;20056;-61
2023/03/02 08:58:22;;;;;;;37.90;27.42;;;7.10;86.30;;;;;;5025230;28;20386;-62
2023/03/02 09:00:47;;;;;;;43.42;28.30;;;7.10;86.50;;;;;;5013200;28;20057;-62
2023/03/02 09:03:13;;;;;;;38.25;25.92;;;7.10;86.20;;;;;;5019304;28;20072;-62
2023/03/02 09:05:39;;;;;;;33.55;25.02;;;7.20;86.00;;;;;;4996088;28;20088;-61
2023/03/02 09:08:05;;;;;;;33.45;25.48;;;7.20;85.40;;;;;;5021168;28;20032;-61
2023/03/02 09:10:30;;;;;;;33.28;23.85;;;7.30;85.10;;;;;;5017013;28;20033;-61
2023/03/02 09:12:56;;;;;;;35.05;25.45;;;7.10;85.60;;;;;;5024085;28;20071;-63
2023/03/02 09:15:22;;;;;;;33.70;23.40;;;7.30;85.50;;;;;;5028388;28;20471;-63
2023/03/02 09:17:47;;;;;;;36.15;24.80;;;7.30;84.20;;;;;;5018650;28;20037;-62
2023/03/02 09:20:13;;;;;;;37.65;25.33;;;7.30;84.00;;;;;;5012097;28;20022;-63
2023/03/02 09:22:39;;;;;;;33.30;23.88;;;7.20;83.90;;;;;;5012052;28;20118;-60
2023/03/02 09:25:05;;;;;;;33.55;23.88;;;7.30;83.70;;;;;;5012113;28;20026;-62
2023/03/02 09:27:31;;;;;;;30.58;21.23;;;7.30;83.50;;;;;;5014497;28;20020;-60
2023/03/02 09:29:57;;;;;;;30.40;21.10;;;7.40;82.80;;;;;;4996967;28;20025;-61
2023/03/02 09:32:23;;;;;;;34.63;22.77;;;7.40;82.30;;;;;;5015634;28;20037;-60
2023/03/02 09:34:48;;;;;;;35.28;22.27;;;7.30;82.70;;;;;;5016868;28;20037;-61
2023/03/02 09:37:14;;;;;;;34.22;22.20;;;7.30;82.50;;;;;;5027916;28;20033;-62
2023/03/02 09:39:39;;;;;;;30.40;21.27;;;7.30;82.60;;;;;;5025350;28;20329;-61
2023/03/02 09:42:24;;;;;;;31.70;22.45;;;7.30;82.40;;;;;;5028823;28;20080;-62
2023/03/02 09:45:01;;;;;;;27.13;20.42;;;7.40;82.50;;;;;;5029417;28;20037;-61
2023/03/02 09:47:42;;;;;;;31.85;21.17;;;7.40;82.40;;;;;;5031880;28;20018;-61
2023/03/02 09:50:36;;;;;;;30.48;20.08;;;7.40;81.60;;;;;;5031869;28;20108;-62
2023/03/02 09:53:27;;;;;;;28.20;19.02;;;7.40;81.50;;;;;;5031696;28;20029;-62
2023/03/02 09:55:57;;;;;;;28.77;20.13;;;7.50;80.60;;;;;;5032065;28;20021;-61
2023/03/02 09:58:28;;;;;;;31.80;20.35;;;7.40;81.40;;;;;;5030964;28;20031;-62
2023/03/02 10:00:53;;;;;;;29.33;19.70;;;7.50;80.70;;;;;;5032098;28;20074;-62
2023/03/02 10:03:30;;;;;;;27.65;19.45;;;7.50;81.10;;;;;;5046350;23;20461;-60
2023/03/02 10:05:57;;;;;;;30.15;20.88;;;7.40;80.80;;;;;;5032828;28;20021;-62
2023/03/02 10:08:26;;;;;;;30.88;19.23;;;7.40;80.70;;;;;;5032044;28;20022;-59
2023/03/02 10:10:56;;;;;;;29.55;20.05;;;7.50;80.60;;;;;;5031989;28;20028;-59
2023/03/02 10:13:27;;;;;;;31.50;20.88;;;7.50;80.50;;;;;;5034046;28;20573;-62
2023/03/02 10:15:53;;;;;;;29.73;20.17;;;7.50;80.70;;;;;;5036090;28;20030;-60
2023/03/02 10:18:38;;;;;;;27.13;19.40;;;7.50;80.80;;;;;;5035825;28;20033;-63
2023/03/02 10:21:20;;;;;;;27.70;19.48;;;7.60;80.80;;;;;;5035824;28;20028;-62
2023/03/02 10:23:57;;;;;;;31.37;20.57;;;7.50;80.90;;;;;;5035253;28;20037;-60
2023/03/02 10:26:34;;;;;;;24.35;17.80;;;7.60;81.10;;;;;;5035599;28;20033;-62
2023/03/02 10:29:14;;;;;;;29.23;18.60;;;7.60;81.10;;;;;;5035518;28;20032;-64
2023/03/02 10:31:42;;;;;;;25.48;18.65;;;7.50;80.80;;;;;;5035588;28;20022;-63
2023/03/02 10:34:10;;;;;;;28.52;19.27;;;7.60;81.10;;;;;;5035338;28;20037;-64
2023/03/02 10:36:42;;;;;;;30.20;20.08;;;7.60;80.80;;;;;;5035460;28;20022;-61
2023/03/02 10:39:15;;;;;;;33.20;19.58;;;7.80;80.00;;;;;;5035149;28;20025;-60
2023/03/02 10:41:48;;;;;;;26.52;19.67;;;7.70;80.70;;;;;;5035897;28;20017;-62
2023/03/02 10:44:35;;;;;;;36.58;20.75;;;7.70;80.60;;;;;;5035166;28;20057;-60
2023/03/02 10:47:01;;;;;;;27.50;18.38;;;7.70;80.40;;;;;;5031789;28;20036;-62
2023/03/02 10:49:41;;;;;;;26.95;19.15;;;7.70;80.30;;;;;;5032147;28;20076;-60
2023/03/02 10:52:33;;;;;;;28.38;19.75;;;7.80;80.10;;;;;;5019993;28;20120;-62
2023/03/02 10:55:13;;;;;;;28.67;19.67;;;7.90;80.20;;;;;;5012094;28;20061;-60
2023/03/02 10:57:41;;;;;;;30.00;19.80;;;7.80;80.60;;;;;;5034495;28;20486;-60
2023/03/02 11:00:25;;;;;;;34.83;21.73;;;7.80;80.60;;;;;;5034556;28;20129;-60
2023/03/02 11:02:59;;;;;;;28.13;19.10;;;7.80;81.00;;;;;;5030206;28;20371;-62
2023/03/02 11:05:29;;;;;;;29.50;19.77;;;7.90;80.40;;;;;;5030644;28;20078;-63
2023/03/02 11:07:57;;;;;;;30.90;21.13;;;7.90;79.60;;;;;;5032706;28;20463;-62
2023/03/02 11:10:28;;;;;;;29.00;20.52;;;7.90;80.00;;;;;;5028049;28;20038;-60
2023/03/02 11:12:54;;;;;;;32.17;20.33;;;7.90;80.40;;;;;;5031179;28;20028;-62
2023/03/02 11:15:28;;;;;;;31.70;22.17;;;7.80;80.50;;;;;;5028258;28;20037;-62
2023/03/02 11:18:23;;;;;;;31.83;21.85;;;7.90;80.80;;;;;;5034394;28;20032;-63
2023/03/02 11:20:53;;;;;;;28.77;20.02;;;7.90;81.40;;;;;;5034187;28;20481;-62
2023/03/02 11:23:37;;;;;;;31.02;20.73;;;7.90;80.90;;;;;;5034390;28;20041;-62
2023/03/02 11:26:16;;;;;;;30.33;19.10;;;8.10;80.70;;;;;;5016443;28;20033;-63
2023/03/02 11:28:54;;;;;;;27.92;19.52;;;8.00;81.10;;;;;;5034314;28;20032;-62
2023/03/02 11:31:59;;;;;;;26.58;18.50;;;8.00;81.00;;;;;;5034634;28;20558;-65
2023/03/02 11:34:55;;;;;;;34.78;19.50;;;8.10;80.70;;;;;;5020593;28;20384;-64
2023/03/02 11:37:24;;;;;;;27.60;18.85;;;8.10;80.40;;;;;;4984192;28;20057;-63
2023/03/02 11:39:59;;;;;;;28.77;18.05;;;8.10;80.30;;;;;;5034025;28;20021;-61
2023/03/02 11:42:35;;;;;;;24.58;16.83;;;8.20;79.60;;;;;;5034315;28;20036;-64
2023/03/02 11:45:23;;;;;;;28.35;18.88;;;8.10;80.10;;;;;;5034033;28;20398;-61
2023/03/02 11:47:54;;;;;;;24.45;17.95;;;8.20;80.00;;;;;;5034076;28;20068;-63
2023/03/02 11:50:20;;;;;;;30.83;19.23;;;8.20;80.40;;;;;;5033681;28;20100;-63
2023/03/02 11:52:51;;;;;;;24.48;16.08;;;8.30;80.10;;;;;;5034334;28;20048;-61
2023/03/02 11:55:28;;;;;;;25.30;17.95;;;8.20;80.70;;;;;;5016203;28;20383;-63
2023/03/02 11:57:58;;;;;;;24.27;16.67;;;8.20;79.90;;;;;;5034131;28;20041;-62
2023/03/02 12:00:37;;;;;;;25.27;17.75;;;8.30;80.00;;;;;;5032255;28;20018;-60
2023/03/02 12:03:17;;;;;;;23.88;16.77;;;8.30;79.70;;;;;;5027555;28;20036;-63
2023/03/02 12:05:46;;;;;;;23.20;17.23;;;8.30;80.00;;;;;;5033814;28;20068;-63
2023/03/02 12:08:17;;;;;;;26.40;16.85;;;8.30;79.40;;;;;;5030431;28;20029;-61
2023/03/02 12:11:14;;;;;;;22.93;16.07;;;8.50;77.90;;;;;;5033240;28;20033;-61
2023/03/02 12:13:40;;;;;;;25.10;15.57;;;8.50;77.70;;;;;;5030993;28;20479;-63
2023/03/02 12:16:37;;;;;;;25.80;17.20;;;8.40;78.90;;;;;;5016427;28;20018;-63
2023/03/02 12:19:37;;;;;;;21.52;14.82;;;8.50;77.50;;;;;;5013976;28;20053;-63
2023/03/02 12:22:05;;;;;;;22.85;16.25;;;8.50;78.40;;;;;;5031177;28;20075;-62
2023/03/02 12:24:36;;;;;;;27.58;15.55;;;8.50;78.30;;;;;;5033380;28;20124;-63
2023/03/02 12:27:23;;;;;;;21.35;16.13;;;8.70;76.90;;;;;;5032588;28;20030;-61
2023/03/02 12:29:54;;;;;;;23.67;15.90;;;8.60;77.00;;;;;;5033494;28;20029;-60
2023/03/02 12:32:27;;;;;;;23.90;15.88;;;8.60;77.10;;;;;;5033130;28;20021;-63
2023/03/02 12:35:11;;;;;;;21.88;15.30;;;8.60;77.00;;;;;;5031042;28;20029;-60
2023/03/02 12:37:50;;;;;;;25.63;16.88;;;8.70;76.80;;;;;;5015917;28;20108;-62
2023/03/02 12:40:39;;;;;;;23.63;16.23;;;8.70;76.70;;;;;;5031679;28;20045;-61
2023/03/02 12:43:28;;;;;;;24.98;16.13;;;8.80;76.60;;;;;;5013377;28;20064;-63
2023/03/02 12:46:16;;;;;;;21.83;14.93;;;8.80;77.20;;;;;;5013368;28;20041;-60
2023/03/02 12:48:59;;;;;;;23.67;15.63;;;8.80;77.80;;;;;;5013185;28;20034;-61
2023/03/02 12:51:27;;;;;;;25.55;15.75;;;8.80;77.80;;;;;;5019486;28;20440;-64
2023/03/02 12:54:11;;;;;;;23.48;15.50;;;8.90;77.30;;;;;;5031734;28;20033;-61
2023/03/02 12:56:37;;;;;;;23.50;14.88;;;9.00;76.60;;;;;;5032311;28;20079;-73